Time;durP1;ratioP1;P1;durP2;ratioP2;P2;SDS_P1;SDS_P2;PMS_P1;PMS_P2;Temp;Humidity;BMP_temperature;BMP_pressure;BME280_temperature;BME280_humidity;BME280_pressure;Samples;Min_cycle;Max_cycle;Signal;HPM_P1;HPM_P2
2021/03/11 00:02:06;;;;;;;17.33;6.03;;;;;;;5.57;100.00;99678.19;4996676;28;20511;-81
2021/03/11 00:04:35;;;;;;;24.00;8.57;;;;;;;5.56;100.00;99676.47;4995895;28;20450;-81
2021/03/11 00:07:00;;;;;;;19.60;7.43;;;;;;;5.58;100.00;99688.59;4989187;28;20018;-81
2021/03/11 00:09:26;;;;;;;21.53;7.63;;;;;;;5.55;100.00;99672.16;4995553;28;20268;-81
2021/03/11 00:11:51;;;;;;;18.80;6.73;;;;;;;5.58;100.00;99664.41;4992691;28;20431;-80
2021/03/11 00:14:17;;;;;;;20.93;7.10;;;;;;;5.64;100.00;99679.09;4985188;28;20054;-81
2021/03/11 00:16:42;;;;;;;22.30;7.67;;;;;;;5.58;100.00;99669.59;4993439;28;20034;-81
2021/03/11 00:19:08;;;;;;;14.13;6.17;;;;;;;5.73;100.00;99669.66;4993735;28;20041;-81
2021/03/11 00:21:33;;;;;;;19.07;7.40;;;;;;;5.69;100.00;99652.31;4987569;28;20073;-81
2021/03/11 00:23:59;;;;;;;13.87;5.70;;;;;;;5.67;100.00;99653.19;4990618;28;20022;-81
2021/03/11 00:26:24;;;;;;;13.00;4.60;;;;;;;5.64;100.00;99635.88;4985862;28;20022;-81
2021/03/11 00:28:50;;;;;;;20.33;7.87;;;;;;;5.58;100.00;99628.97;4987141;28;20022;-81
2021/03/11 00:31:15;;;;;;;22.87;7.73;;;;;;;5.54;100.00;99639.31;4989911;28;20521;-81
2021/03/11 00:33:41;;;;;;;19.20;7.73;;;;;;;5.53;100.00;99627.19;4987434;28;20045;-81
2021/03/11 00:36:07;;;;;;;21.00;7.90;;;;;;;5.52;100.00;99604.72;4987290;28;20495;-81
2021/03/11 00:38:32;;;;;;;23.30;8.20;;;;;;;5.52;100.00;99592.63;4983852;28;20022;-81
2021/03/11 00:40:57;;;;;;;21.07;8.23;;;;;;;5.49;100.00;99576.19;4990673;28;20177;-81
2021/03/11 00:43:23;;;;;;;19.60;7.50;;;;;;;5.54;100.00;99569.28;4989884;28;20029;-81
2021/03/11 00:45:49;;;;;;;21.10;7.63;;;;;;;5.59;100.00;99560.69;4994433;28;20066;-81
2021/03/11 00:48:15;;;;;;;25.33;8.57;;;;;;;5.58;100.00;99548.59;4982775;28;20030;-80
2021/03/11 00:50:40;;;;;;;20.10;9.13;;;;;;;5.63;100.00;99533.03;4988786;28;20569;-80
2021/03/11 00:53:05;;;;;;;21.93;8.07;;;;;;;5.68;100.00;99531.28;4991340;28;20038;-81
2021/03/11 00:55:31;;;;;;;23.97;7.50;;;;;;;5.68;100.00;99536.47;4990135;28;20113;-81
2021/03/11 00:57:56;;;;;;;19.40;8.13;;;;;;;5.66;100.00;99524.38;4988221;28;20022;-81
2021/03/11 01:00:23;;;;;;;19.60;7.43;;;;;;;5.69;100.00;99533.03;4981038;28;20089;-81
2021/03/11 01:02:49;;;;;;;15.57;7.00;;;;;;;5.74;100.00;99505.38;4983704;28;20039;-81
2021/03/11 01:05:18;;;;;;;20.57;7.90;;;;;;;5.77;100.00;99500.19;4990861;28;20270;-81
2021/03/11 01:07:44;;;;;;;21.27;8.10;;;;;;;5.76;100.00;99506.25;4979209;28;20050;-80
2021/03/11 01:10:10;;;;;;;16.53;6.57;;;;;;;5.87;100.00;99499.34;4981760;28;20022;-81
2021/03/11 01:12:36;;;;;;;17.63;6.33;;;;;;;5.82;100.00;99488.13;4987146;28;20511;-81
2021/03/11 01:15:02;;;;;;;16.40;6.93;;;;;;;5.81;100.00;99481.16;4985362;28;20032;-81
2021/03/11 01:17:27;;;;;;;18.30;6.30;;;;;;;5.91;100.00;99470.84;4990894;28;20489;-81
2021/03/11 01:19:53;;;;;;;16.57;6.73;;;;;;;5.89;100.00;99471.69;4989082;28;20286;-81
2021/03/11 01:22:18;;;;;;;20.60;7.93;;;;;;;5.83;100.00;99463.91;4991455;28;20030;-82
2021/03/11 01:24:44;;;;;;;18.37;6.43;;;;;;;5.81;100.00;99447.44;4996481;28;20058;-80
2021/03/11 01:27:09;;;;;;;14.63;6.87;;;;;;;5.83;100.00;99447.47;4988018;28;20045;-80
2021/03/11 01:29:35;;;;;;;15.73;6.27;;;;;;;5.86;100.00;99444.88;4985209;28;20077;-81
2021/03/11 01:32:00;;;;;;;20.37;7.37;;;;;;;5.83;100.00;99427.59;4993063;28;20526;-80
2021/03/11 01:34:25;;;;;;;17.93;6.50;;;;;;;5.88;100.00;99409.41;4996586;28;20089;-80
2021/03/11 01:36:51;;;;;;;14.13;6.40;;;;;;;5.86;100.00;99417.22;4996723;28;20022;-81
2021/03/11 01:39:16;;;;;;;14.77;6.53;;;;;;;5.87;100.00;99424.13;4994342;28;20022;-81
2021/03/11 01:41:42;;;;;;;18.20;7.53;;;;;;;5.89;100.00;99396.44;4991864;28;20471;-81
2021/03/11 01:44:07;;;;;;;17.70;6.30;;;;;;;5.91;100.00;99390.41;4992791;28;20382;-81
2021/03/11 01:46:33;;;;;;;16.07;6.73;;;;;;;5.89;100.00;99380.88;4996287;28;20490;-81
2021/03/11 01:48:58;;;;;;;20.33;7.83;;;;;;;5.89;100.00;99367.91;4992451;28;20475;-81
2021/03/11 01:51:25;;;;;;;19.60;7.23;;;;;;;5.89;100.00;99373.09;4992482;28;20026;-80
2021/03/11 01:53:51;;;;;;;20.70;7.60;;;;;;;5.92;100.00;99348.03;5000780;28;20018;-81
2021/03/11 01:56:17;;;;;;;16.67;6.07;;;;;;;5.98;100.00;99335.06;4991116;28;20039;-80
2021/03/11 01:58:42;;;;;;;15.30;6.13;;;;;;;6.05;100.00;99334.19;4993632;28;20288;-80
2021/03/11 02:01:08;;;;;;;14.73;5.20;;;;;;;6.17;100.00;99341.94;4990164;28;20089;-81
2021/03/11 02:03:33;;;;;;;17.97;7.10;;;;;;;6.19;100.00;99326.38;5000936;23;20037;-67
2021/03/11 02:05:59;;;;;;;15.00;6.10;;;;;;;6.19;100.00;99309.06;5007800;28;20393;-66
2021/03/11 02:08:25;;;;;;;15.03;6.87;;;;;;;6.20;100.00;99291.78;5011175;28;20025;-66
2021/03/11 02:10:51;;;;;;;17.10;6.60;;;;;;;6.27;100.00;99304.69;5009692;28;20041;-66
2021/03/11 02:13:37;;;;;;;15.13;5.63;;;;;;;6.26;100.00;99292.59;5011481;28;20034;-67
2021/03/11 02:16:25;;;;;;;12.23;4.93;;;;;;;6.37;100.00;99267.44;5011166;28;20079;-66
2021/03/11 02:19:00;;;;;;;16.00;6.17;;;;;;;6.29;100.00;99266.63;5010417;28;20104;-66
2021/03/11 02:21:34;;;;;;;14.77;5.73;;;;;;;6.40;100.00;99270.03;5011868;28;20474;-66
2021/03/11 02:24:00;;;;;;;12.67;5.33;;;;;;;6.39;100.00;99263.09;5012177;28;20299;-66
2021/03/11 02:27:02;;;;;;;15.50;5.40;;;;;;;6.50;100.00;99251.81;5011843;28;20117;-67
2021/03/11 02:29:37;;;;;;;14.85;5.18;;;;;;;6.51;100.00;99251.78;5007100;28;20132;-67
2021/03/11 02:32:07;;;;;;;11.23;5.43;;;;;;;6.62;100.00;99259.53;5007262;28;20026;-67
2021/03/11 02:34:37;;;;;;;14.23;6.00;;;;;;;6.57;100.00;99235.34;5009534;28;20025;-66
2021/03/11 02:37:13;;;;;;;13.17;5.07;;;;;;;6.63;100.00;99241.34;5010683;28;20377;-66
2021/03/11 02:39:43;;;;;;;14.80;5.17;;;;;;;6.65;100.00;99249.13;5010837;28;20022;-66
2021/03/11 02:42:10;;;;;;;11.97;5.20;;;;;;;6.62;100.00;99237.00;5003431;28;20026;-67
2021/03/11 02:44:40;;;;;;;11.23;4.57;;;;;;;6.66;100.00;99230.06;5006741;28;20049;-66
2021/03/11 02:47:06;;;;;;;13.87;5.83;;;;;;;6.62;100.00;99223.16;5009591;28;20041;-67
2021/03/11 02:49:33;;;;;;;10.43;4.37;;;;;;;6.68;100.00;99202.38;5012314;28;20430;-66
2021/03/11 02:51:58;;;;;;;12.90;4.63;;;;;;;6.68;100.00;99200.63;5009494;28;20030;-66
2021/03/11 02:54:25;;;;;;;14.10;5.43;;;;;;;6.67;100.00;99190.25;5002315;28;20233;-66
2021/03/11 02:56:52;;;;;;;12.60;5.33;;;;;;;6.66;100.00;99185.91;5002795;28;20018;-66
2021/03/11 02:59:18;;;;;;;16.20;7.30;;;;;;;6.58;100.00;99190.31;5005227;28;20547;-66
2021/03/11 03:01:47;;;;;;;13.90;5.90;;;;;;;6.56;100.00;99181.69;5007136;28;20108;-66
2021/03/11 03:04:13;;;;;;;12.90;5.67;;;;;;;6.60;100.00;99183.38;5000715;28;20108;-67
2021/03/11 03:06:40;;;;;;;13.87;5.30;;;;;;;6.64;100.00;99177.28;4984968;28;20474;-66
2021/03/11 03:09:06;;;;;;;15.33;6.17;;;;;;;6.55;100.00;99174.75;4984637;28;20072;-66
2021/03/11 03:11:34;;;;;;;16.70;6.63;;;;;;;6.50;100.00;99172.19;4987376;28;20533;-66
2021/03/11 03:14:01;;;;;;;15.73;6.17;;;;;;;6.52;100.00;99179.94;4985932;28;20122;-66
2021/03/11 03:16:27;;;;;;;12.00;5.90;;;;;;;6.53;100.00;99163.50;4987864;28;20027;-66
2021/03/11 03:18:54;;;;;;;13.53;5.57;;;;;;;6.45;100.00;99164.44;4987963;28;20391;-66
2021/03/11 03:21:20;;;;;;;14.67;5.60;;;;;;;6.50;100.00;99166.13;4986905;28;20425;-66
2021/03/11 03:23:46;;;;;;;12.70;5.40;;;;;;;6.47;100.00;99156.63;4984607;28;20050;-66
2021/03/11 03:26:12;;;;;;;13.37;5.07;;;;;;;6.47;100.00;99165.28;4985991;28;20726;-66
2021/03/11 03:28:38;;;;;;;15.20;6.03;;;;;;;6.49;100.00;99170.44;4988331;28;20027;-66
2021/03/11 03:31:05;;;;;;;16.27;6.00;;;;;;;6.52;100.00;99164.38;4984048;28;20098;-66
2021/03/11 03:33:30;;;;;;;15.23;6.30;;;;;;;6.49;100.00;99154.03;4987170;28;20502;-66
2021/03/11 03:35:56;;;;;;;18.73;6.87;;;;;;;6.51;100.00;99155.72;4978889;28;20026;-67
2021/03/11 03:38:21;;;;;;;15.87;6.30;;;;;;;6.50;100.00;99140.16;4986418;28;20053;-67
2021/03/11 03:40:47;;;;;;;14.33;5.87;;;;;;;6.52;100.00;99156.59;4980384;28;20172;-67
2021/03/11 03:43:22;;;;;;;10.43;4.63;;;;;;;6.44;100.00;99154.91;4989417;28;20028;-67
2021/03/11 03:45:55;;;;;;;15.03;5.83;;;;;;;6.46;100.00;99150.56;4981942;28;20453;-67
2021/03/11 03:48:29;;;;;;;15.00;5.67;;;;;;;6.42;100.00;99148.88;4989323;28;20034;-67
2021/03/11 03:50:56;;;;;;;15.03;6.00;;;;;;;6.39;100.00;99138.50;4983658;28;20181;-67
2021/03/11 03:53:26;;;;;;;14.77;6.27;;;;;;;6.31;100.00;99127.31;4988650;28;20030;-67
2021/03/11 03:55:58;;;;;;;16.00;5.47;;;;;;;6.29;100.00;99139.44;4989894;28;20396;-67
2021/03/11 03:58:26;;;;;;;16.30;6.65;;;;;;;6.29;100.00;99142.03;4999643;28;20026;-67
2021/03/11 04:00:53;;;;;;;16.70;6.47;;;;;;;6.21;100.00;99127.41;4988908;28;20497;-67
2021/03/11 04:03:20;;;;;;;16.37;6.57;;;;;;;6.28;100.00;99119.53;4980991;28;20492;-67
2021/03/11 04:05:48;;;;;;;14.50;5.63;;;;;;;6.27;100.00;99130.78;4988955;28;20050;-67
2021/03/11 04:08:14;;;;;;;14.20;5.90;;;;;;;6.28;100.00;99118.69;4985041;28;20026;-67
2021/03/11 04:10:43;;;;;;;17.77;5.90;;;;;;;6.24;100.00;99110.06;4991311;28;20049;-67
2021/03/11 04:13:10;;;;;;;16.03;6.50;;;;;;;6.26;100.00;99105.72;4992080;28;20373;-67
2021/03/11 04:15:36;;;;;;;14.37;5.57;;;;;;;6.27;100.00;99097.06;4995261;28;20038;-67
2021/03/11 04:18:02;;;;;;;13.93;5.83;;;;;;;6.35;100.00;99092.69;4991789;28;20117;-67
2021/03/11 04:20:28;;;;;;;14.90;6.10;;;;;;;6.36;100.00;99102.19;4990748;28;20117;-67
2021/03/11 04:22:55;;;;;;;12.93;4.90;;;;;;;6.33;100.00;99083.19;4990860;28;20030;-67
2021/03/11 04:25:21;;;;;;;15.00;6.17;;;;;;;6.33;100.00;99076.25;4990477;28;20119;-67
2021/03/11 04:27:47;;;;;;;11.47;4.30;;;;;;;6.33;100.00;99068.47;4991050;28;20492;-67
2021/03/11 04:30:13;;;;;;;9.90;4.37;;;;;;;6.33;100.00;99063.28;4990367;28;20079;-67
2021/03/11 04:32:38;;;;;;;15.60;5.27;;;;;;;6.33;100.00;99065.00;4990878;28;20145;-67
2021/03/11 04:35:07;;;;;;;12.23;4.63;;;;;;;6.32;100.00;99051.19;4990647;28;20526;-66
2021/03/11 04:37:34;;;;;;;14.47;4.77;;;;;;;6.39;100.00;99052.81;4992128;28;20057;-67
2021/03/11 04:39:59;;;;;;;12.97;5.07;;;;;;;6.43;100.00;99051.94;4991603;28;20022;-67
2021/03/11 04:42:25;;;;;;;10.30;4.57;;;;;;;6.42;100.00;99039.84;4990204;28;20038;-67
2021/03/11 04:44:51;;;;;;;11.20;5.27;;;;;;;6.41;100.00;99032.91;4992092;28;20041;-67
2021/03/11 04:47:16;;;;;;;12.83;5.53;;;;;;;6.42;100.00;99029.47;4989614;28;20197;-67
2021/03/11 04:49:42;;;;;;;13.70;5.90;;;;;;;6.43;100.00;99015.59;4990538;28;20229;-68
2021/03/11 04:52:09;;;;;;;12.83;5.13;;;;;;;6.41;100.00;99017.31;4989695;28;20386;-67
2021/03/11 04:54:35;;;;;;;12.60;4.37;;;;;;;6.47;100.00;99012.09;4991700;28;20074;-66
2021/03/11 04:57:02;;;;;;;16.43;5.13;;;;;;;6.51;100.00;99002.53;4990171;28;20617;-67
2021/03/11 04:59:27;;;;;;;11.23;5.10;;;;;;;6.53;100.00;99012.91;4984319;28;20030;-67
2021/03/11 05:01:57;;;;;;;13.50;5.33;;;;;;;6.56;100.00;99005.09;4990348;28;20033;-67
2021/03/11 05:04:23;;;;;;;10.77;4.37;;;;;;;6.55;100.00;98993.00;4990812;28;20100;-67
2021/03/11 05:06:49;;;;;;;12.43;5.07;;;;;;;6.53;100.00;98995.59;4991846;28;20034;-67
2021/03/11 05:09:15;;;;;;;11.17;4.87;;;;;;;6.58;100.00;98992.97;4991375;28;20033;-67
2021/03/11 05:11:43;;;;;;;12.97;5.37;;;;;;;6.60;100.00;98980.81;4986353;28;20038;-67
2021/03/11 05:14:09;;;;;;;11.93;5.17;;;;;;;6.66;100.00;98975.53;4992071;28;20066;-67
2021/03/11 05:16:34;;;;;;;8.70;4.30;;;;;;;6.66;100.00;98959.94;4990000;28;20041;-67
2021/03/11 05:19:00;;;;;;;13.23;5.20;;;;;;;6.61;100.00;98966.94;4991751;28;20088;-66
2021/03/11 05:21:25;;;;;;;12.10;3.97;;;;;;;6.67;100.00;98961.69;4990294;28;20542;-67
2021/03/11 05:23:51;;;;;;;9.30;3.90;;;;;;;6.69;100.00;98941.75;4989797;28;20499;-67
2021/03/11 05:26:16;;;;;;;14.50;5.03;;;;;;;6.72;100.00;98949.50;4989390;28;20080;-67
2021/03/11 05:28:42;;;;;;;9.63;4.10;;;;;;;6.72;100.00;98950.38;4990688;28;20026;-67
2021/03/11 05:31:07;;;;;;;11.23;4.30;;;;;;;6.75;100.00;98931.28;4991351;28;20050;-67
2021/03/11 05:33:33;;;;;;;12.20;4.37;;;;;;;6.78;100.00;98951.16;4990717;28;20549;-66
2021/03/11 05:35:58;;;;;;;9.70;4.70;;;;;;;6.88;100.00;98938.06;4989470;28;20034;-66
2021/03/11 05:38:24;;;;;;;10.83;4.50;;;;;;;6.83;100.00;98942.47;4990245;28;20233;-66
2021/03/11 05:40:53;;;;;;;9.90;3.93;;;;;;;6.81;100.00;98928.63;4991239;28;20500;-66
2021/03/11 05:43:20;;;;;;;10.40;4.20;;;;;;;6.84;100.00;98941.56;4989545;28;20026;-67
2021/03/11 05:45:46;;;;;;;11.17;4.67;;;;;;;6.90;100.00;98938.88;4990282;28;20057;-67
2021/03/11 05:48:16;;;;;;;8.43;3.83;;;;;;;6.90;100.00;98948.44;4987346;28;20058;-66
2021/03/11 05:50:43;;;;;;;8.60;3.33;;;;;;;7.02;100.00;98917.94;4986596;28;20030;-67
2021/03/11 05:53:11;;;;;;;10.80;4.47;;;;;;;6.99;100.00;98914.53;4990538;28;20068;-67
2021/03/11 05:55:38;;;;;;;9.30;3.87;;;;;;;6.94;100.00;98912.00;4989416;28;20026;-67
2021/03/11 05:58:04;;;;;;;8.30;3.87;;;;;;;7.02;100.00;98912.75;4989868;28;20470;-67
2021/03/11 06:00:30;;;;;;;10.53;4.60;;;;;;;6.98;100.00;98905.88;4989634;28;20034;-67
2021/03/11 06:03:00;;;;;;;10.87;4.10;;;;;;;7.07;100.00;98909.25;4990443;28;20037;-66
2021/03/11 06:05:26;;;;;;;9.40;3.90;;;;;;;7.11;100.00;98900.53;4994229;28;20042;-67
2021/03/11 06:07:51;;;;;;;7.70;3.60;;;;;;;7.20;100.00;98879.59;4992888;28;20034;-67
2021/03/11 06:10:21;;;;;;;9.43;4.13;;;;;;;7.25;100.00;98860.44;4993340;28;20046;-66
2021/03/11 06:12:49;;;;;;;8.13;3.77;;;;;;;7.24;100.00;98865.69;4993611;28;20026;-66
2021/03/11 06:15:20;;;;;;;8.40;4.23;;;;;;;7.28;100.00;98860.44;4994270;28;20127;-67
2021/03/11 06:17:48;;;;;;;8.90;3.83;;;;;;;7.30;100.00;98850.00;4991818;28;20061;-66
2021/03/11 06:20:13;;;;;;;8.87;3.67;;;;;;;7.35;100.00;98858.56;4993500;28;20034;-66
2021/03/11 06:22:39;;;;;;;9.13;4.17;;;;;;;7.43;100.00;98845.47;4993923;28;20390;-66
2021/03/11 06:25:07;;;;;;;7.33;3.50;;;;;;;7.47;100.00;98836.72;4991319;28;20394;-67
2021/03/11 06:27:32;;;;;;;8.27;3.90;;;;;;;7.53;100.00;98831.44;4991762;28;20121;-67
2021/03/11 06:29:58;;;;;;;8.53;4.00;;;;;;;7.56;100.00;98831.38;4992949;28;20109;-67
2021/03/11 06:32:25;;;;;;;9.67;3.83;;;;;;;7.52;100.00;98827.97;4993442;28;20034;-66
2021/03/11 06:34:51;;;;;;;7.67;3.47;;;;;;;7.55;100.00;98803.66;4993771;28;20037;-67
2021/03/11 06:37:35;;;;;;;5.60;2.90;;;;;;;7.65;100.00;98813.03;4992760;28;20054;-67
2021/03/11 06:40:15;;;;;;;6.83;3.13;;;;;;;7.67;100.00;98813.00;4988195;28;20042;-67
2021/03/11 06:42:41;;;;;;;8.47;4.30;;;;;;;7.73;100.00;98820.69;4991974;28;20049;-66
2021/03/11 06:45:26;;;;;;;8.57;3.70;;;;;;;7.77;100.00;98804.16;4991403;28;20023;-67
2021/03/11 06:48:13;;;;;;;9.27;4.30;;;;;;;7.78;100.00;98796.31;4991351;28;20035;-67
2021/03/11 06:50:38;;;;;;;6.93;3.50;;;;;;;7.82;100.00;98803.16;4989684;28;20164;-67
2021/03/11 06:53:04;;;;;;;9.63;4.73;;;;;;;7.93;100.00;98784.75;4992375;28;20495;-67
2021/03/11 06:55:31;;;;;;;10.00;4.53;;;;;;;7.91;100.00;98786.53;4994456;28;20034;-67
2021/03/11 06:58:14;;;;;;;11.13;4.47;;;;;;;7.97;100.00;98791.59;4994128;28;20022;-67
2021/03/11 07:00:39;;;;;;;6.57;3.30;;;;;;;8.05;100.00;98784.53;4994550;28;20419;-66
2021/03/11 07:03:05;;;;;;;7.73;3.97;;;;;;;8.05;100.00;98789.72;4994010;28;20065;-67
2021/03/11 07:05:37;;;;;;;6.60;2.90;;;;;;;8.12;100.00;98791.34;4994014;28;20058;-66
2021/03/11 07:08:04;;;;;;;9.48;3.42;;;;;;;8.18;100.00;98791.19;4994424;28;20578;-67
2021/03/11 07:10:29;;;;;;;10.93;4.50;;;;;;;8.34;100.00;98775.25;4993627;28;20030;-67
2021/03/11 07:12:57;;;;;;;12.80;4.43;;;;;;;8.31;100.00;98781.41;4993970;28;20109;-67
2021/03/11 07:15:25;;;;;;;11.57;4.60;;;;;;;8.32;100.00;98745.78;4993960;28;20033;-67
2021/03/11 07:17:52;;;;;;;8.83;4.57;;;;;;;8.29;100.00;98766.69;4994686;28;20037;-67
2021/03/11 07:20:18;;;;;;;9.30;3.70;;;;;;;8.31;100.00;98765.78;4993562;28;20129;-67
2021/03/11 07:23:05;;;;;;;6.30;3.23;;;;;;;8.23;100.00;98775.47;4994001;28;20121;-66
2021/03/11 07:25:32;;;;;;;10.80;5.17;;;;;;;8.36;100.00;98777.00;4993853;28;20105;-66
2021/03/11 07:27:59;;;;;;;12.23;5.17;;;;;;;8.32;100.00;98756.22;4993755;28;20030;-66
2021/03/11 07:30:26;;;;;;;8.63;4.53;;;;;;;8.49;100.00;98733.31;4993819;28;20480;-67
2021/03/11 07:33:03;;;;;;;9.07;4.33;;;;;;;8.47;100.00;98754.16;4993807;28;20109;-66
2021/03/11 07:35:33;;;;;;;9.90;4.83;;;;;;;8.52;100.00;98748.88;4994460;28;20046;-67
2021/03/11 07:38:02;;;;;;;8.40;4.10;;;;;;;8.55;100.00;98743.59;4995477;28;20026;-66
2021/03/11 07:40:31;;;;;;;11.73;4.53;;;;;;;8.55;100.00;98714.94;4998712;28;20394;-67
2021/03/11 07:42:57;;;;;;;8.70;4.37;;;;;;;8.62;100.00;98729.56;4993691;28;20023;-66
2021/03/11 07:45:22;;;;;;;12.10;4.93;;;;;;;8.76;100.00;98724.03;4993821;28;20027;-67
2021/03/11 07:47:50;;;;;;;8.83;4.10;;;;;;;8.96;100.00;98731.34;4993618;28;20031;-67
2021/03/11 07:50:16;;;;;;;7.97;3.90;;;;;;;9.25;100.00;98718.47;4993467;28;20026;-67
2021/03/11 07:52:41;;;;;;;10.53;4.20;;;;;;;9.71;100.00;98735.53;4992917;28;20084;-68
2021/03/11 07:55:09;;;;;;;12.13;4.23;;;;;;;9.45;100.00;98704.94;4993567;28;20045;-66
2021/03/11 07:57:47;;;;;;;7.87;3.43;;;;;;;9.34;100.00;98718.25;4993371;28;20076;-66
2021/03/11 08:00:14;;;;;;;7.50;3.93;;;;;;;9.34;100.00;98710.41;4993009;28;20028;-67
2021/03/11 08:02:50;;;;;;;6.27;3.23;;;;;;;9.62;100.00;98700.09;4992554;28;20034;-67
2021/03/11 08:05:25;;;;;;;6.23;3.10;;;;;;;9.65;100.00;98704.38;4993152;28;20088;-67
2021/03/11 08:08:11;;;;;;;7.27;3.70;;;;;;;9.87;100.00;98715.94;4993107;28;20030;-67
2021/03/11 08:11:01;;;;;;;6.63;3.37;;;;;;;10.27;100.00;98720.91;4993157;28;20018;-67
2021/03/11 08:13:37;;;;;;;8.90;3.80;;;;;;;10.16;100.00;98732.53;4986794;28;20403;-67
2021/03/11 08:16:08;;;;;;;7.00;3.23;;;;;;;10.49;100.00;98710.69;4993115;28;20430;-67
2021/03/11 08:18:34;;;;;;;7.53;3.03;;;;;;;10.64;100.00;98700.66;4993147;28;20364;-67
2021/03/11 08:21:00;;;;;;;8.13;3.57;;;;;;;10.28;100.00;98706.09;4995749;28;20112;-67
2021/03/11 08:23:31;;;;;;;8.43;3.80;;;;;;;10.32;100.00;98697.28;4996345;28;20105;-67
2021/03/11 08:25:56;;;;;;;6.03;3.30;;;;;;;10.77;100.00;98684.53;4992477;28;20045;-68
2021/03/11 08:28:22;;;;;;;6.37;2.83;;;;;;;11.02;100.00;98679.34;4992604;28;20494;-67
2021/03/11 08:30:53;;;;;;;8.70;3.20;;;;;;;10.81;100.00;98674.84;4992852;28;20032;-67
2021/03/11 08:33:18;;;;;;;8.23;3.13;;;;;;;10.51;100.00;98682.75;4991719;28;20084;-67
2021/03/11 08:35:51;;;;;;;6.33;3.20;;;;;;;10.46;100.00;98668.97;4993028;28;20030;-67
2021/03/11 08:38:20;;;;;;;7.20;3.27;;;;;;;10.61;100.00;98672.00;4995022;28;20446;-67
2021/03/11 08:40:52;;;;;;;6.03;2.60;;;;;;;10.69;100.00;98680.47;4997586;28;20054;-67
2021/03/11 08:43:44;;;;;;;6.70;3.08;;;;;;;10.58;100.00;98680.81;4990941;28;20032;-67
2021/03/11 08:46:20;;;;;;;8.98;3.38;;;;;;;10.80;100.00;98668.78;4992251;28;21403;-68
2021/03/11 08:48:57;;;;;;;4.43;2.50;;;;;;;10.75;100.00;98675.03;4992287;28;20033;-67
2021/03/11 08:51:23;;;;;;;7.73;3.37;;;;;;;10.55;100.00;98679.16;4991675;28;20419;-67
2021/03/11 08:54:01;;;;;;;4.53;2.30;;;;;;;10.61;100.00;98682.47;4991668;28;20149;-67
2021/03/11 08:56:26;;;;;;;7.57;3.00;;;;;;;10.52;100.00;98683.59;4989898;28;20540;-67
2021/03/11 08:58:58;;;;;;;5.27;2.77;;;;;;;10.37;100.00;98678.84;5000641;28;20100;-67
2021/03/11 09:01:36;;;;;;;;;;;;;;;10.55;100.00;98673.94;4991080;28;20030;-67
2021/03/11 09:04:06;;;;;;;8.93;3.13;;;;;;;10.50;100.00;98683.66;4988082;28;20016;-67
2021/03/11 09:06:59;;;;;;;6.00;2.83;;;;;;;10.53;100.00;98691.38;4992032;28;20026;-67
2021/03/11 09:09:35;;;;;;;4.57;2.50;;;;;;;10.52;100.00;98700.13;4962506;28;20037;-67
2021/03/11 09:12:03;;;;;;;5.83;3.10;;;;;;;11.00;100.00;98689.03;4992066;28;20022;-67
2021/03/11 09:14:29;;;;;;;4.67;2.40;;;;;;;11.04;100.00;98677.56;4991805;28;20406;-67
2021/03/11 09:17:14;;;;;;;6.83;3.40;;;;;;;10.82;100.00;98645.19;4991867;28;20032;-67
2021/03/11 09:19:45;;;;;;;6.20;2.47;;;;;;;10.56;100.00;98664.31;4992338;28;20486;-67
2021/03/11 09:22:20;;;;;;;9.57;3.23;;;;;;;10.40;100.00;98652.63;4991455;28;20030;-67
2021/03/11 09:24:58;;;;;;;4.97;2.43;;;;;;;10.22;100.00;98644.47;4991548;28;20026;-67
2021/03/11 09:27:31;;;;;;;5.53;2.80;;;;;;;9.89;100.00;98640.19;4991803;28;20030;-67
2021/03/11 09:29:59;;;;;;;7.37;3.47;;;;;;;9.70;100.00;98632.06;4992015;28;20376;-67
2021/03/11 09:32:30;;;;;;;9.10;3.60;;;;;;;9.58;100.00;98625.44;4991938;28;20022;-66
2021/03/11 09:34:58;;;;;;;5.57;2.70;;;;;;;9.64;100.00;98620.03;4991974;28;20548;-67
2021/03/11 09:37:54;;;;;;;6.57;2.83;;;;;;;9.99;100.00;98632.06;5000316;28;20072;-67
2021/03/11 09:40:50;;;;;;;6.40;2.53;;;;;;;10.38;100.00;98617.84;4995454;28;20288;-67
2021/03/11 09:43:27;;;;;;;5.70;2.43;;;;;;;10.53;100.00;98596.44;4990452;28;20442;-67
2021/03/11 09:45:59;;;;;;;6.03;2.50;;;;;;;10.65;100.00;98587.34;4991499;28;20031;-67
2021/03/11 09:48:34;;;;;;;3.75;1.75;;;;;;;10.84;100.00;98612.84;5001787;28;20500;-67
2021/03/11 09:50:59;;;;;;;5.27;2.60;;;;;;;11.10;100.00;98598.88;4995601;28;20040;-67
2021/03/11 09:53:44;;;;;;;4.43;2.20;;;;;;;11.52;100.00;98600.06;4995760;28;20034;-67
2021/03/11 09:56:29;;;;;;;6.17;2.70;;;;;;;11.85;98.88;98601.44;4995035;28;20394;-67
2021/03/11 09:58:56;;;;;;;4.97;2.27;;;;;;;11.84;99.32;98593.63;4995440;28;20080;-67
2021/03/11 10:01:26;;;;;;;4.17;2.00;;;;;;;11.78;98.14;98591.25;4995133;28;20022;-67
2021/03/11 10:03:53;;;;;;;5.00;1.97;;;;;;;11.80;95.69;98560.63;4992779;28;20049;-67
2021/03/11 10:06:20;;;;;;;8.87;2.20;;;;;;;11.94;94.12;98587.16;4994744;28;20034;-67
2021/03/11 10:08:46;;;;;;;4.23;1.80;;;;;;;11.73;93.02;98583.53;4995481;28;20037;-67
2021/03/11 10:11:19;;;;;;;4.20;1.90;;;;;;;11.57;95.67;98551.00;4994568;28;20467;-67
2021/03/11 10:14:01;;;;;;;4.17;1.73;;;;;;;11.60;91.43;98567.44;4995141;28;20026;-67
2021/03/11 10:16:32;;;;;;;5.63;1.53;;;;;;;11.47;92.38;98540.00;4994990;28;20022;-67
2021/03/11 10:19:27;;;;;;;3.90;1.30;;;;;;;11.40;91.35;98567.34;4995384;28;20038;-67
2021/03/11 10:22:19;;;;;;;4.50;1.60;;;;;;;11.34;90.87;98570.16;4979566;28;20560;-67
2021/03/11 10:24:49;;;;;;;3.63;1.23;;;;;;;11.49;88.81;98532.09;4986482;28;20034;-67
2021/03/11 10:27:17;;;;;;;4.77;2.47;;;;;;;11.66;87.70;98541.03;4994742;28;20041;-67
2021/03/11 10:29:43;;;;;;;6.50;1.73;;;;;;;11.67;90.63;98542.75;4995343;28;20038;-67
2021/03/11 10:32:09;;;;;;;10.80;2.43;;;;;;;12.01;87.79;98534.47;4993823;28;20026;-67
2021/03/11 10:34:46;;;;;;;4.07;1.37;;;;;;;12.04;87.22;98520.41;4994643;28;20027;-67
2021/03/11 10:37:13;;;;;;;3.27;1.23;;;;;;;12.05;85.60;98527.34;4993383;28;20080;-67
2021/03/11 10:39:53;;;;;;;6.27;2.10;;;;;;;12.00;86.99;98529.31;4995000;28;20049;-67
2021/03/11 10:42:18;;;;;;;4.30;1.60;;;;;;;11.89;87.50;98547.19;4994665;28;20109;-67
2021/03/11 10:44:58;;;;;;;7.23;1.87;;;;;;;11.86;87.13;98542.06;4993470;28;20185;-67
2021/03/11 10:47:24;;;;;;;6.67;1.47;;;;;;;11.39;88.65;98508.06;4988857;28;20072;-67
2021/03/11 10:49:50;;;;;;;3.30;1.33;;;;;;;10.89;91.58;98526.41;4993754;28;20105;-67
2021/03/11 10:52:18;;;;;;;3.43;1.37;;;;;;;10.82;91.44;98517.94;4994654;28;20545;-67
2021/03/11 10:54:46;;;;;;;4.83;1.00;;;;;;;10.86;91.32;98532.59;4994414;28;20037;-67
2021/03/11 10:57:14;;;;;;;1.63;0.90;;;;;;;11.07;90.42;98510.06;4994047;28;20030;-67
2021/03/11 11:00:11;;;;;;;2.77;1.20;;;;;;;11.21;89.37;98498.25;4994664;28;20150;-67
2021/03/11 11:02:36;;;;;;;6.53;1.43;;;;;;;11.31;91.51;98497.88;4984262;28;20458;-68
2021/03/11 11:05:02;;;;;;;6.40;1.80;;;;;;;11.43;89.49;98502.63;4994214;28;20054;-67
2021/03/11 11:07:28;;;;;;;5.67;1.37;;;;;;;11.44;88.79;98490.41;4993589;28;20045;-67
2021/03/11 11:09:54;;;;;;;5.10;1.43;;;;;;;11.49;88.21;98458.81;4994624;28;20102;-67
2021/03/11 11:12:22;;;;;;;3.20;1.03;;;;;;;11.42;90.08;98487.84;4994093;28;20044;-67
2021/03/11 11:14:49;;;;;;;11.17;1.80;;;;;;;11.56;88.36;98469.00;4994368;28;20023;-68
2021/03/11 11:17:15;;;;;;;5.43;1.90;;;;;;;11.68;86.65;98471.16;4993775;28;20034;-67
2021/03/11 11:19:42;;;;;;;4.07;1.43;;;;;;;11.83;83.11;98448.75;4994392;28;20042;-67
2021/03/11 11:22:09;;;;;;;8.00;1.93;;;;;;;11.79;82.50;98451.53;4994169;28;20471;-67
2021/03/11 11:24:35;;;;;;;4.60;1.17;;;;;;;12.00;80.60;98456.81;4993816;28;20101;-67
2021/03/11 11:27:01;;;;;;;3.57;1.07;;;;;;;12.17;79.02;98435.16;4994352;28;20149;-67
2021/03/11 11:29:27;;;;;;;6.47;1.13;;;;;;;12.50;77.62;98456.47;4993147;28;20541;-67
2021/03/11 11:31:53;;;;;;;5.60;1.30;;;;;;;12.79;77.96;98421.13;4993137;28;20093;-68
2021/03/11 11:34:19;;;;;;;3.77;1.20;;;;;;;12.70;76.39;98420.66;4993450;28;20069;-68
2021/03/11 11:36:46;;;;;;;9.33;1.20;;;;;;;12.50;77.58;98417.16;4994014;28;20026;-68
2021/03/11 11:39:11;;;;;;;8.13;1.17;;;;;;;12.40;76.95;98422.84;4992967;28;20117;-68